Date,TemperatureHighF,TemperatureAvgF,TemperatureLowF,DewpointHighF,DewpointAvgF,DewpointLowF,HumidityHigh,HumidityAvg,HumidityLow,PressureMaxIn,PressureMinIn,WindSpeedMaxMPH,WindSpeedAvgMPH,GustSpeedMaxMPH,PrecipitationSumIn
2013-1-1,47.6,38.3,27.2,12.0,8.4,2.0,48,31,19,30.35,30.25,16,2,16,0.00
2013-1-2,54.4,39.9,29.1,8.0,4.9,2.0,36,24,14,30.31,30.17,8,2,10,0.00
2013-1-3,54.4,37.0,24.7,10.0,3.5,-4.0,42,26,14,30.36,30.21,5,1,11,0.00
2013-1-4,54.4,37.1,22.4,11.0,2.7,-4.0,39,24,14,30.40,30.27,8,1,9,0.00
2013-1-5,54.2,39.3,24.2,9.0,2.6,-3.0,39,23,13,30.41,30.18,5,1,9,0.00
2013-1-6,52.8,45.3,37.0,31.0,21.0,1.0,71,40,18,30.18,29.96,17,6,23,0.00
2013-1-7,62.6,47.5,32.9,27.0,12.3,8.0,69,27,13,30.15,30.02,16,4,21,0.00
2013-1-8,65.5,51.9,40.5,30.0,24.8,11.0,51,36,23,30.20,30.08,10,2,13,0.00
2013-1-9,64.2,51.8,32.8,30.6,25.9,21.0,65,39,25,30.20,29.81,26,6,26,0.00
2013-1-10,54.5,43.9,35.6,36.7,18.1,5.0,59,37,22,29.99,29.74,32,12,36,0.00
2013-1-11,46.4,37.5,30.7,16.5,10.8,-1.8,52,35,13,30.11,29.99,12,4,15,0.00
2013-1-12,46.0,34.5,23.6,12.1,6.1,1.0,48,32,18,30.21,30.10,9,2,10,0.00
2013-1-13,41.3,30.0,16.2,4.5,1.0,-4.0,49,30,19,30.29,30.12,17,3,17,0.00
2013-1-14,40.5,28.9,17.3,-3.0,-6.0,-9.0,37,23,13,30.47,30.30,9,2,11,0.00
2013-1-15,50.1,32.6,19.2,5.0,-3.5,-10.0,29,22,13,30.62,30.47,8,1,11,0.00
2013-1-16,56.6,37.4,22.2,13.0,4.9,-3.0,38,27,17,30.56,30.38,5,1,8,0.00
2013-1-17,59.8,40.5,24.1,11.0,6.4,0.0,49,27,11,30.43,30.30,8,1,14,0.00
2013-1-18,59.9,44.8,28.5,7.4,2.8,-1.0,30,18,10,30.37,30.23,9,3,13,0.00
2013-1-19,62.1,40.9,27.3,6.0,0.6,-4.0,30,20,9,30.39,30.25,7,1,9,0.00
2013-1-20,63.1,46.4,29.8,7.0,0.5,-4.0,25,16,9,30.31,30.17,9,4,12,0.00
2013-1-21,66.0,50.4,36.3,5.0,0.9,-4.0,18,14,8,30.26,30.13,10,4,14,0.00
2013-1-22,65.5,51.6,35.8,8.9,3.8,-3.0,23,15,10,30.24,30.11,11,2,13,0.00
2013-1-23,56.5,44.7,36.6,32.0,7.6,2.0,54,22,15,30.21,30.11,3,1,6,0.00
2013-1-24,53.6,49.8,47.0,49.0,43.0,24.2,91,79,38,30.23,30.11,5,0,8,0.14
2013-1-25,57.5,52.0,48.2,50.0,47.3,45.0,92,84,65,30.23,29.99,3,0,5,0.11
2013-1-26,63.2,53.8,45.7,52.0,46.7,35.0,96,79,51,29.99,29.77,23,2,27,0.05
2013-1-27,53.1,48.6,42.5,38.1,28.1,18.6,71,47,26,29.95,29.78,25,12,33,0.00
2013-1-28,53.9,43.8,34.9,23.9,15.9,6.8,61,35,15,30.13,29.95,14,4,14,0.00
2013-1-29,59.8,44.7,33.5,31.0,25.7,22.0,65,49,26,30.26,30.06,10,2,13,0.00
2013-1-30,65.5,52.0,35.3,31.0,28.0,25.9,72,43,24,30.36,30.22,7,2,8,0.00
2013-1-31,66.4,51.4,36.3,31.0,28.3,26.0,73,45,23,30.29,30.15,7,2,11,0.00
2013-2-1,68.1,51.1,36.2,30.0,28.1,26.0,72,45,21,30.25,30.15,6,1,8,0.00
2013-2-2,66.0,55.2,42.7,31.2,28.1,24.0,62,37,21,30.29,30.17,7,1,12,0.00
2013-2-3,69.9,57.6,47.1,39.6,34.1,28.0,67,43,22,30.18,29.95,8,2,12,0.00
2013-2-4,74.0,56.4,46.4,31.0,21.7,17.0,55,28,13,30.10,29.95,10,2,12,0.00
2013-2-5,71.6,57.5,37.3,25.0,21.8,17.0,57,28,14,30.00,29.79,22,5,24,0.00
2013-2-6,70.9,57.1,47.0,32.0,18.5,2.0,45,26,7,30.02,29.81,17,4,22,0.00
2013-2-7,66.0,51.5,35.3,28.4,20.0,2.3,58,33,9,30.03,29.77,26,6,26,0.00
2013-2-8,51.6,44.8,36.5,27.6,21.7,14.0,58,41,24,29.82,29.70,24,12,35,0.00
2013-2-9,56.3,44.4,36.6,24.0,20.1,14.0,56,40,21,30.01,29.82,13,7,21,0.00
2013-2-10,57.8,44.2,30.7,21.0,16.6,11.0,60,36,17,30.06,29.91,10,3,15,0.00
2013-2-11,53.2,44.5,33.8,13.0,5.0,-3.0,37,21,10,30.25,30.05,16,5,24,0.00
2013-2-12,59.6,43.1,25.8,9.0,4.0,-1.0,35,21,13,30.38,30.25,8,2,12,0.00
2013-2-13,66.9,47.9,29.7,14.8,10.5,6.0,40,24,13,30.32,30.14,8,2,11,0.00
2013-2-14,67.4,53.7,38.8,21.7,18.7,10.7,39,26,16,30.24,30.11,15,4,23,0.00
2013-2-15,69.8,54.3,42.9,21.7,18.1,11.0,41,26,12,30.31,30.22,16,4,21,0.00
2013-2-16,69.4,52.7,33.8,14.0,10.7,7.0,40,20,9,30.30,29.97,7,2,11,0.00
2013-2-17,72.9,55.9,38.9,24.0,10.4,-2.0,31,18,5,29.97,29.77,11,4,15,0.00
2013-2-18,67.7,54.9,35.3,26.0,20.9,15.0,55,28,14,29.98,29.77,22,7,27,0.00
2013-2-19,55.1,47.5,38.9,33.7,25.1,10.0,76,44,22,29.79,29.52,32,13,32,0.00
2013-2-20,59.8,46.2,35.7,32.3,20.0,11.0,83,39,15,29.90,29.49,17,7,21,0.00
2013-2-21,55.4,44.4,32.8,21.8,14.8,4.8,57,33,15,30.08,29.89,11,5,19,0.00
2013-2-22,63.2,47.9,31.0,26.0,16.1,8.0,60,33,11,30.20,30.09,9,3,14,0.00
2013-2-23,65.3,51.2,39.1,27.0,19.2,6.0,49,31,15,30.10,29.77,27,8,39,0.00
2013-2-24,57.8,46.9,36.8,8.0,2.2,-2.0,28,17,9,30.22,30.10,16,6,20,0.00
2013-2-25,64.8,47.9,31.2,16.0,3.4,-3.0,28,17,9,30.26,29.97,11,2,18,0.00
2013-2-26,61.5,50.5,36.3,17.0,7.9,-1.0,41,20,10,30.20,30.03,19,3,19,0.00
2013-2-27,63.2,47.3,31.3,8.0,3.4,-1.0,30,17,10,30.36,30.20,9,2,17,0.00
2013-2-28,70.3,51.3,31.6,8.0,4.4,0.0,28,16,8,30.42,30.31,8,1,9,0.00
2013-3-1,73.3,58.3,39.5,19.7,12.9,5.0,26,17,10,30.41,30.23,11,3,15,0.00
2013-3-2,77.9,60.8,39.6,22.0,17.9,13.0,39,21,10,30.29,29.98,11,3,16,0.00
2013-3-3,71.8,62.8,53.5,37.0,28.8,22.0,40,28,21,29.99,29.75,31,11,35,0.00
2013-3-4,74.4,60.7,47.7,32.0,26.2,18.0,54,30,12,29.99,29.82,8,3,13,0.00
2013-3-5,72.0,59.8,42.1,32.8,26.0,19.0,52,29,18,30.00,29.80,30,7,34,0.00
2013-3-6,61.9,53.5,45.2,36.0,30.0,26.0,67,42,26,29.92,29.82,25,16,37,0.00
2013-3-7,58.7,51.1,42.2,36.5,30.3,21.7,67,47,24,29.88,29.77,28,11,29,0.00
2013-3-8,45.7,40.2,34.6,39.0,33.7,28.0,91,78,58,29.92,29.71,11,2,17,0.41
2013-3-9,64.5,50.8,33.4,38.0,28.8,13.0,92,50,20,30.23,29.92,14,2,20,0.01
2013-3-10,73.9,58.3,43.3,19.0,10.6,4.0,28,16,7,30.31,30.13,7,2,10,0.00
2013-3-11,77.0,57.7,36.6,26.2,17.5,7.4,65,27,8,30.20,30.01,6,1,15,0.00
2013-3-12,81.8,62.4,42.5,25.7,18.9,12.0,47,22,8,30.13,30.00,10,2,13,0.00
2013-3-13,83.6,65.0,44.2,28.0,23.4,15.9,49,24,10,30.18,30.02,9,1,10,0.00
2013-3-14,89.7,70.2,47.4,35.0,25.9,22.0,48,22,9,30.16,29.97,9,3,14,0.00
2013-3-15,88.4,74.9,63.7,40.0,31.7,17.0,38,22,7,29.98,29.73,24,9,31,0.00
2013-3-16,87.0,71.9,59.9,38.0,28.3,18.0,38,22,8,29.86,29.70,18,7,28,0.00
2013-3-17,81.8,69.2,57.0,27.1,21.5,12.0,26,17,8,29.90,29.75,32,9,32,0.00
2013-3-18,79.2,66.2,51.7,27.0,20.5,12.1,31,19,8,29.99,29.82,19,6,22,0.00
2013-3-19,82.0,70.3,59.3,30.2,24.3,19.7,26,18,10,29.99,29.85,17,6,24,0.00
2013-3-20,76.0,67.9,61.3,36.2,30.0,20.2,35,25,15,29.95,29.76,34,16,39,0.00
2013-3-21,74.9,60.8,55.0,35.0,26.6,15.0,43,29,11,29.86,29.65,24,8,28,0.00
2013-3-22,76.7,63.7,54.0,32.0,20.1,5.7,40,20,7,29.85,29.69,14,5,19,0.00
2013-3-23,71.8,59.1,45.4,22.6,10.5,-1.1,31,17,6,30.06,29.86,16,6,17,0.00
2013-3-24,76.8,57.9,41.3,28.0,11.1,2.0,30,18,7,30.07,29.88,10,2,13,0.00
2013-3-25,78.6,64.1,48.9,27.0,20.8,4.0,39,21,9,29.96,29.79,16,4,21,0.00
2013-3-26,78.5,69.1,59.0,30.8,20.6,3.0,28,17,9,29.84,29.68,33,11,33,0.00
2013-3-27,78.6,66.4,57.6,35.0,28.4,23.0,38,25,13,29.85,29.74,19,8,30,0.00
2013-3-28,78.5,66.4,57.6,38.0,31.0,24.0,44,28,14,29.96,29.85,18,8,25,0.00
2013-3-29,81.8,68.1,52.0,38.0,28.7,11.0,45,25,7,30.07,29.94,16,5,21,0.00
2013-3-30,83.0,70.9,60.2,37.8,29.1,19.4,37,22,11,30.01,29.86,24,7,26,0.00
2013-3-31,74.1,63.6,56.4,46.2,37.8,26.0,64,41,18,29.95,29.86,29,12,29,0.00
2013-4-1,74.9,61.8,51.4,36.6,29.9,22.0,49,32,14,30.00,29.89,28,9,31,0.00
2013-4-2,79.2,66.8,52.3,40.0,30.6,21.6,52,29,12,30.05,29.91,14,5,15,0.00
2013-4-3,85.5,68.4,52.3,38.6,31.3,21.0,53,29,12,30.05,29.91,11,4,25,0.00
2013-4-4,78.1,70.2,62.7,40.0,34.0,29.7,37,27,19,29.95,29.83,23,11,29,0.00
2013-4-5,80.5,67.2,56.7,38.6,32.5,23.0,43,29,14,29.93,29.80,16,6,24,0.00
2013-4-6,81.1,66.9,54.9,37.0,32.5,27.7,41,29,15,29.96,29.79,21,7,22,0.00
2013-4-7,82.6,67.4,57.6,35.8,32.0,26.8,40,28,14,29.88,29.62,38,8,38,0.00
2013-4-8,64.8,57.6,46.3,37.0,25.2,9.0,68,32,14,29.82,29.46,36,14,41,0.00
2013-4-9,70.9,60.1,49.1,17.0,8.4,-1.0,27,14,6,30.06,29.82,27,12,31,0.00
2013-4-10,84.2,67.6,52.8,25.0,13.2,8.0,23,13,7,30.14,29.90,20,5,22,0.00
2013-4-11,83.6,70.8,56.9,37.0,24.0,19.3,35,18,10,29.91,29.62,18,6,28,0.00
2013-4-12,86.3,71.4,58.7,38.1,28.3,23.0,39,22,11,29.80,29.64,16,5,29,0.00
2013-4-13,87.4,74.5,64.0,34.1,29.7,24.4,32,20,12,29.71,29.47,30,11,33,0.00
2013-4-14,85.9,72.8,64.5,34.0,30.1,24.0,28,21,13,29.59,29.39,36,12,44,0.00
2013-4-15,72.7,63.2,53.9,32.0,24.5,16.0,35,24,13,29.63,29.45,39,23,48,0.00
2013-4-16,64.5,53.6,43.6,27.0,17.5,10.0,37,25,13,30.00,29.63,25,10,32,0.00
2013-4-17,66.3,54.4,44.1,13.7,8.5,1.0,28,17,8,30.21,30.00,16,7,24,0.00
2013-4-18,72.3,59.9,42.8,8.1,4.7,-1.7,23,12,6,30.31,30.17,12,2,15,0.00
2013-4-19,81.6,63.6,42.5,24.0,10.2,1.0,21,13,6,30.25,29.91,14,4,20,0.00
2013-4-20,86.7,69.7,55.6,34.0,24.1,18.0,28,19,8,30.01,29.88,17,3,24,0.00
2013-4-21,90.7,74.8,58.0,33.4,27.6,19.0,35,19,9,29.95,29.76,24,6,24,0.00
2013-4-22,92.3,76.8,57.6,32.3,27.9,21.9,35,18,8,29.85,29.61,15,6,26,0.00
2013-4-23,79.8,72.2,62.9,31.0,14.8,3.0,21,12,7,29.95,29.67,19,7,25,0.00
2013-4-24,80.1,70.2,53.9,25.0,10.8,1.0,31,11,6,29.94,29.80,19,5,26,0.00
2013-4-25,87.5,73.8,54.7,32.0,23.5,12.6,35,17,7,29.95,29.82,15,4,24,0.00
2013-4-26,90.3,74.6,57.6,36.0,25.7,9.0,41,20,5,30.12,29.96,13,4,19,0.00
2013-4-27,95.4,81.3,65.6,35.5,24.1,13.5,28,14,5,30.13,29.92,20,5,20,0.00
2013-4-28,97.1,82.3,67.9,38.0,28.0,13.0,29,16,5,29.94,29.74,20,6,23,0.00
2013-4-29,97.5,82.6,67.9,40.0,32.6,18.7,32,18,6,29.84,29.63,25,7,26,0.00
2013-4-30,93.6,82.0,71.1,40.0,32.8,22.0,28,18,8,29.71,29.55,23,8,33,0.00
2013-5-1,81.2,75.4,59.5,40.8,3.2,-16.0,38,8,2,30.21,29.71,24,9,27,0.00
2013-5-2,81.4,67.8,55.0,2.0,-4.1,-10.0,9,6,3,30.37,30.21,18,5,27,0.00
2013-5-3,91.6,71.5,48.3,21.0,0.1,-8.0,13,7,3,30.22,29.83,10,3,19,0.00
2013-5-4,91.6,76.1,64.5,35.0,21.3,10.3,27,14,6,29.83,29.56,31,7,37,0.00
2013-5-5,65.7,60.9,53.5,40.3,34.3,24.0,60,38,21,29.96,29.68,24,11,32,0.00
2013-5-6,67.1,58.5,50.5,48.0,40.3,32.0,75,53,28,30.04,29.94,26,11,33,0.00
2013-5-7,72.8,60.0,50.8,40.0,36.9,32.0,64,45,25,30.03,29.95,14,7,24,0.00
2013-5-8,76.8,64.2,51.4,41.0,36.4,29.0,58,38,18,30.12,30.02,15,5,19,0.00
2013-5-9,78.1,65.8,57.0,53.0,41.4,34.1,72,44,21,30.14,30.04,32,5,32,0.01
2013-5-10,90.7,75.1,58.4,47.0,38.6,27.0,62,32,11,30.18,30.04,12,4,17,0.00
2013-5-11,95.1,82.1,67.1,38.9,30.9,23.0,28,17,8,30.16,30.03,13,3,18,0.00
2013-5-12,99.5,85.5,72.1,39.1,34.2,26.1,28,18,8,30.14,29.95,9,4,16,0.00
2013-5-13,100.2,87.9,74.9,42.0,34.3,24.0,30,16,7,30.02,29.88,17,6,23,0.00
2013-5-14,93.8,82.7,73.1,38.1,26.6,1.0,28,14,3,29.92,29.78,30,11,40,0.00
2013-5-15,96.1,81.8,69.9,40.0,32.0,20.0,33,18,7,29.92,29.74,15,6,21,0.00
2013-5-16,89.0,76.9,66.3,37.0,30.2,22.0,34,19,11,29.81,29.73,33,12,33,0.00
2013-5-17,82.6,71.5,62.9,40.0,36.4,32.0,42,29,18,29.89,29.77,24,10,30,0.00
2013-5-18,88.6,74.2,60.7,34.0,29.5,24.0,34,21,10,30.02,29.88,14,6,19,0.00
2013-5-19,89.9,79.0,62.7,33.0,27.1,23.2,27,16,10,30.03,29.87,11,5,17,0.00
2013-5-20,87.6,76.9,64.2,32.3,20.9,13.6,24,13,7,30.10,29.93,10,3,17,0.00
2013-5-21,91.4,78.9,70.4,28.5,22.7,16.0,19,13,7,29.96,29.72,28,10,34,0.00
2013-5-22,83.0,74.0,61.8,34.8,23.3,14.6,26,16,8,29.76,29.60,38,17,41,0.00
2013-5-23,81.1,69.9,56.6,25.0,12.8,-7.1,26,13,3,29.89,29.69,32,14,43,0.00
2013-5-24,86.7,69.5,54.2,34.1,20.8,6.0,29,18,5,29.99,29.84,25,5,26,0.00
2013-5-25,88.4,73.0,61.1,31.0,25.9,17.5,31,19,8,29.93,29.82,26,9,31,0.00
2013-5-26,89.5,74.4,63.5,36.0,29.0,22.0,30,19,11,29.93,29.82,24,9,33,0.00
2013-5-27,88.8,75.3,61.1,38.0,31.0,17.4,32,21,10,29.94,29.76,22,6,27,0.00
2013-5-28,89.5,76.3,65.6,43.0,37.6,31.8,38,26,14,29.76,29.65,20,8,31,0.00
2013-5-29,88.4,77.1,65.2,45.0,39.9,35.0,41,28,15,29.81,29.64,22,9,25,0.00
2013-5-30,95.9,81.9,66.4,45.7,36.3,17.1,43,23,8,29.86,29.69,28,8,33,0.00
2013-5-31,97.0,82.9,68.4,39.6,28.9,20.4,27,16,7,29.94,29.77,17,4,21,0.00
2013-6-1,102.8,87.4,71.1,32.0,22.1,14.0,20,10,4,29.93,29.74,9,4,17,0.00
2013-6-2,100.7,86.6,74.6,39.0,31.2,24.0,23,14,8,29.75,29.60,23,8,30,0.00
2013-6-3,98.7,86.7,70.8,41.0,34.3,17.6,28,17,6,29.77,29.64,22,7,24,0.00
2013-6-4,100.4,84.9,69.1,45.0,38.3,22.0,35,21,7,29.84,29.74,17,6,22,0.00
2013-6-5,104.1,87.2,72.5,47.0,39.8,27.0,39,22,7,29.91,29.75,19,6,23,0.00
2013-6-6,107.4,91.8,75.3,46.0,36.5,23.7,34,17,6,29.85,29.70,16,5,20,0.00
2013-6-7,108.7,92.5,75.7,47.2,34.7,20.0,33,17,5,29.81,29.67,14,5,21,0.00
2013-6-8,110.5,98.0,81.4,41.0,29.3,20.6,20,10,5,29.74,29.63,28,7,30,0.00
2013-6-9,102.5,90.5,78.3,44.4,29.1,-2.0,28,14,2,29.80,29.71,25,8,30,0.00
2013-6-10,88.6,79.7,70.6,39.0,25.1,13.0,26,14,6,29.85,29.75,24,10,33,0.00
2013-6-11,101.5,88.6,73.7,37.6,32.2,21.3,24,15,6,29.94,29.79,27,7,27,0.00
2013-6-12,98.5,87.1,75.7,41.0,34.0,23.6,27,16,7,29.89,29.79,22,9,39,0.00
2013-6-13,95.6,84.1,73.2,39.3,24.5,7.7,26,13,4,29.89,29.77,30,14,36,0.00
2013-6-14,97.7,81.4,62.9,34.0,20.9,3.0,23,13,3,29.93,29.75,20,6,24,0.00
2013-6-15,95.6,83.3,68.3,33.6,25.4,13.2,27,14,5,29.87,29.77,30,9,31,0.00
2013-6-16,99.0,83.4,67.2,33.0,25.9,16.6,23,13,6,29.95,29.84,22,6,26,0.00
2013-6-17,100.2,84.0,69.3,39.0,30.9,19.4,27,16,6,29.95,29.79,22,6,26,0.00
2013-6-18,96.3,84.5,68.9,39.6,28.0,14.0,27,14,5,29.82,29.71,31,11,38,0.00
2013-6-19,93.6,78.7,65.8,36.0,27.5,14.9,28,17,7,29.82,29.70,25,11,38,0.00
2013-6-20,92.7,78.1,63.6,32.0,25.7,17.0,27,16,7,29.87,29.73,25,9,27,0.00
2013-6-21,94.9,82.1,66.4,35.0,28.7,17.5,27,16,6,29.88,29.71,30,8,33,0.00
2013-6-22,99.0,85.6,67.9,35.0,28.1,15.2,26,14,7,29.88,29.72,22,6,22,0.00
2013-6-23,95.4,80.7,68.4,40.0,34.5,30.0,29,20,11,29.74,29.61,29,10,37,0.00
2013-6-24,84.3,77.2,68.1,49.0,41.6,33.0,41,28,21,29.81,29.65,32,15,35,0.00
2013-6-25,94.9,83.8,68.6,50.8,46.9,42.3,49,30,17,29.93,29.79,32,11,33,0.00
2013-6-26,104.9,88.4,73.4,53.1,47.6,40.3,46,27,12,29.96,29.85,21,7,25,0.00
2013-6-27,107.7,91.3,76.2,57.0,48.9,38.2,51,27,10,30.03,29.91,14,6,20,0.00
2013-6-28,111.0,94.9,80.7,53.5,47.2,31.6,38,22,7,29.98,29.79,16,6,22,0.00
2013-6-29,112.9,99.0,81.4,50.1,42.8,30.0,33,17,6,29.86,29.71,22,6,22,0.00
2013-6-30,114.2,99.0,84.4,47.1,40.2,26.6,27,15,5,29.81,29.65,19,7,24,0.00
2013-7-1,111.3,98.4,87.7,47.0,41.4,35.0,23,15,8,29.85,29.70,22,7,27,0.00
2013-7-2,110.3,95.8,80.3,48.3,44.3,39.0,30,18,9,29.93,29.74,22,6,50,0.00
2013-7-3,110.5,99.2,85.1,45.0,43.3,39.0,24,15,9,29.83,29.63,19,8,24,0.00
2013-7-4,112.6,100.7,84.9,53.0,43.3,39.1,28,15,9,29.73,29.58,23,5,23,0.00
2013-7-5,107.1,95.8,84.1,52.0,46.6,31.7,32,20,9,29.69,29.60,16,8,26,0.00
2013-7-6,105.1,93.6,80.7,42.3,35.4,27.4,21,14,7,29.72,29.62,24,10,29,0.00
2013-7-7,106.0,93.4,81.1,39.0,33.1,24.0,21,13,7,29.81,29.69,19,8,25,0.00
2013-7-8,99.2,85.9,80.1,28.1,26.3,23.0,14,12,7,29.93,29.80,16,7,22,0.00
2013-7-9,105.7,95.2,80.7,34.0,26.7,18.6,13,9,5,29.98,29.89,27,8,27,0.00
2013-7-10,104.1,93.2,85.3,46.0,36.5,29.0,22,14,9,29.92,29.80,16,7,20,0.00
2013-7-11,91.0,84.9,80.3,59.2,48.2,42.0,47,29,20,29.94,29.82,19,4,21,0.00
2013-7-12,99.5,86.9,74.2,44.7,36.4,20.0,30,18,8,29.93,29.78,15,6,22,0.00
2013-7-13,102.3,92.0,77.9,36.0,31.3,24.4,19,12,8,29.93,29.81,20,7,23,0.00
2013-7-14,105.4,92.4,79.9,42.0,35.1,31.0,18,14,9,29.91,29.75,18,5,26,0.00
2013-7-15,101.3,89.8,80.3,43.0,33.5,26.5,17,14,10,29.85,29.71,23,9,34,0.00
2013-7-16,99.4,85.0,72.5,33.0,28.2,21.0,18,13,6,29.95,29.82,17,8,22,0.00
2013-7-17,102.3,86.2,70.9,40.0,30.8,18.0,26,15,5,30.07,29.94,13,6,19,0.00
2013-7-18,105.7,89.9,73.5,41.0,32.7,12.9,26,15,4,30.04,29.84,15,5,18,0.00
2013-7-19,110.0,96.2,76.7,43.0,36.2,29.3,25,13,7,29.92,29.74,18,6,21,0.00
2013-7-20,107.7,93.7,77.9,49.0,40.4,34.5,23,16,11,29.86,29.70,22,6,26,0.00
2013-7-21,101.5,89.9,79.8,65.0,52.3,43.0,53,29,19,29.94,29.78,16,5,25,0.00
2013-7-22,95.9,80.2,73.0,69.0,58.5,48.5,82,51,26,30.01,29.90,19,4,33,0.64
2013-7-23,99.0,84.2,70.6,69.0,58.7,50.0,84,46,21,30.07,29.91,14,3,17,0.04
2013-7-24,105.4,90.8,78.8,57.0,51.2,38.0,46,28,12,29.98,29.82,16,6,19,0.00
2013-7-25,107.1,93.6,80.3,50.0,46.5,43.0,34,21,12,29.96,29.86,15,7,20,0.00
2013-7-26,97.1,89.0,83.0,58.0,51.7,46.0,42,28,21,30.05,29.96,14,7,22,0.00
2013-7-27,99.4,86.2,73.9,65.3,58.3,53.5,72,41,23,30.07,29.85,19,4,20,0.08
2013-7-28,101.2,88.1,75.2,61.5,54.2,41.3,61,34,17,29.91,29.79,16,4,22,0.00
2013-7-29,99.4,83.5,69.1,53.0,38.8,21.0,49,24,6,30.00,29.87,21,5,30,0.00
2013-7-30,101.5,89.5,76.3,46.0,42.0,37.9,33,20,12,30.10,29.96,23,6,23,0.00
2013-7-31,100.7,87.6,70.9,44.5,35.6,16.4,36,18,5,30.09,29.91,16,5,22,0.00
2013-8-1,99.7,84.9,72.2,41.0,34.5,19.6,31,18,6,29.97,29.80,30,12,31,0.00
2013-8-2,96.3,82.1,66.3,38.0,32.0,22.0,32,18,7,29.96,29.86,17,6,22,0.00
2013-8-3,100.4,84.5,68.8,32.7,25.8,9.0,23,13,5,30.01,29.89,21,6,22,0.00
2013-8-4,101.7,86.0,73.0,34.0,25.4,6.0,22,13,3,30.01,29.88,17,6,25,0.00
2013-8-5,101.2,86.6,74.4,36.1,26.9,17.0,23,13,5,30.00,29.85,18,7,24,0.00
2013-8-6,101.5,85.9,73.3,38.0,33.1,23.0,25,16,6,29.98,29.87,18,8,31,0.00
2013-8-7,94.9,82.9,72.5,42.0,29.9,13.0,32,17,5,29.98,29.90,28,14,33,0.00
2013-8-8,93.2,80.9,70.4,39.0,32.2,15.0,28,19,6,29.98,29.86,20,9,27,0.00
2013-8-9,93.8,79.8,66.4,41.4,30.3,7.4,36,20,4,29.98,29.89,15,7,22,0.00
2013-8-10,95.6,81.3,68.4,41.0,36.4,18.0,37,22,6,30.03,29.92,17,6,21,0.00
2013-8-11,97.3,84.1,68.6,43.0,34.1,21.6,36,19,7,30.02,29.88,14,5,17,0.00
2013-8-12,101.5,85.8,70.3,41.0,33.9,22.0,35,18,6,30.00,29.87,16,7,22,0.00
2013-8-13,103.1,88.7,72.5,39.0,31.3,20.1,28,15,6,30.01,29.88,13,5,17,0.00
2013-8-14,103.9,90.4,75.1,40.0,28.3,18.3,26,12,5,29.98,29.85,16,5,25,0.00
2013-8-15,103.3,89.9,74.2,42.0,35.7,30.0,23,15,9,29.98,29.86,13,6,23,0.00
2013-8-16,104.1,90.9,77.6,47.0,41.3,37.0,26,18,11,29.99,29.86,17,7,25,0.00
2013-8-17,104.4,90.9,77.2,46.0,39.5,23.0,30,18,6,29.97,29.79,16,7,25,0.00
2013-8-18,104.6,87.0,71.6,59.0,43.6,36.0,42,23,12,30.03,29.82,21,5,46,0.01
2013-8-19,97.3,81.8,68.6,66.1,57.7,47.8,81,48,23,30.06,29.90,12,3,16,0.70
2013-8-20,102.8,88.7,74.0,60.0,45.9,30.0,61,26,9,29.97,29.85,15,4,21,0.00
2013-8-21,101.5,91.0,80.5,43.2,37.9,30.6,22,16,10,29.97,29.85,20,6,22,0.00
2013-8-22,100.2,89.5,77.2,42.1,38.5,29.0,28,18,10,29.98,29.82,27,8,30,0.00
2013-8-23,98.7,86.4,73.7,43.0,32.9,15.0,32,17,5,29.92,29.76,17,8,25,0.00
2013-8-24,98.0,84.2,69.9,43.0,33.2,15.0,38,20,5,29.92,29.80,16,7,24,0.00
2013-8-25,96.1,83.7,66.4,60.0,35.4,17.4,57,21,6,30.01,29.86,25,6,25,0.00
2013-8-26,88.2,78.4,65.3,60.0,56.9,54.0,74,49,31,30.07,29.95,14,4,21,0.00
2013-8-27,94.5,83.2,70.6,60.0,56.8,52.3,67,43,27,30.01,29.85,18,2,18,0.00
2013-8-28,99.2,86.9,73.2,58.0,52.7,45.0,53,33,20,29.97,29.86,16,5,21,0.00
2013-8-29,102.8,90.3,74.9,61.0,49.3,43.9,40,26,14,30.04,29.91,19,6,20,0.00
2013-8-30,99.7,88.5,77.9,61.5,55.4,47.8,46,33,23,30.06,29.92,19,5,22,0.00
2013-8-31,99.9,88.1,77.7,60.0,53.4,46.0,46,32,20,30.02,29.84,20,7,24,0.00
2013-9-1,98.7,87.0,77.0,56.0,51.7,46.0,45,31,17,29.96,29.82,17,7,25,0.00
2013-9-2,99.2,88.3,79.2,56.0,50.6,43.0,43,29,15,29.96,29.83,23,9,25,0.00
2013-9-3,99.0,88.6,78.5,56.0,50.9,45.4,45,29,17,29.96,29.86,17,7,22,0.00
2013-9-4,102.8,88.6,74.5,53.2,47.8,39.3,45,27,12,30.01,29.88,19,5,28,0.00
2013-9-5,102.0,89.1,76.3,49.0,45.7,40.0,37,24,13,29.98,29.85,14,6,23,0.00
2013-9-6,101.5,89.5,79.0,48.0,42.9,38.0,31,21,12,29.96,29.81,18,7,25,0.00
2013-9-7,101.2,88.3,75.1,52.0,39.5,29.0,31,19,8,29.96,29.81,16,6,26,0.00
2013-9-8,97.1,84.4,67.8,57.0,48.3,32.0,50,30,16,29.96,29.78,26,4,26,0.00
2013-9-9,96.8,83.3,70.3,58.9,49.3,38.0,60,35,16,29.91,29.73,19,3,19,0.00
2013-9-10,92.3,81.7,68.4,46.0,41.1,37.0,43,24,17,29.93,29.76,14,4,21,0.00
2013-9-11,93.8,81.8,70.1,42.1,39.9,38.0,33,23,15,30.00,29.88,10,4,17,0.00
2013-9-12,96.3,82.8,70.8,46.0,40.6,37.0,37,23,13,30.00,29.83,14,6,17,0.00
2013-9-13,97.5,83.5,67.4,46.0,43.8,40.0,44,26,14,29.90,29.71,10,3,14,0.00
2013-9-14,101.2,88.7,72.1,47.0,41.7,28.8,39,21,8,29.81,29.68,17,5,20,0.00
2013-9-15,100.2,91.1,74.7,48.0,38.2,30.7,39,18,9,29.83,29.73,21,6,22,0.00
2013-9-16,97.5,86.7,71.1,43.3,36.5,25.9,33,18,8,29.90,29.75,19,6,23,0.00
2013-9-17,93.4,82.7,72.5,43.2,30.1,12.3,32,16,5,29.80,29.67,27,13,32,0.00
2013-9-18,92.3,77.9,64.2,44.3,33.0,25.5,40,22,10,29.87,29.73,14,4,27,0.00
2013-9-19,94.0,81.0,64.2,34.0,23.2,18.8,23,13,7,29.95,29.81,14,2,14,0.00
2013-9-20,93.8,77.6,58.1,39.0,27.1,20.0,27,17,8,29.90,29.76,23,6,29,0.00
2013-9-21,85.1,73.4,63.1,41.0,37.8,29.0,43,28,13,29.83,29.71,25,12,32,0.00
2013-9-22,80.9,67.5,56.7,39.0,30.8,21.0,42,28,11,29.98,29.78,22,8,28,0.00
2013-9-23,88.4,71.7,52.5,38.7,32.4,27.0,53,27,12,30.09,29.96,11,3,15,0.00
2013-9-24,92.7,78.0,58.9,36.0,26.0,6.0,38,17,4,30.00,29.78,23,10,30,0.00
2013-9-25,78.6,70.5,59.2,43.3,32.4,15.0,45,27,10,29.79,29.59,32,16,39,0.00
2013-9-26,74.0,64.9,52.3,33.6,23.9,17.4,38,22,12,30.01,29.67,24,6,30,0.00
2013-9-27,77.2,64.6,54.2,24.0,20.9,16.0,30,20,11,30.19,30.02,11,4,18,0.00
2013-9-28,83.6,66.1,46.1,21.0,17.8,13.0,32,17,9,30.19,30.05,8,2,14,0.00
2013-9-29,90.5,72.9,55.6,27.0,22.5,14.0,28,16,7,30.11,29.91,22,6,23,0.00
2013-9-30,91.6,76.6,61.8,36.0,27.5,22.0,26,17,9,29.96,29.79,15,5,21,0.00
2013-10-1,91.8,75.9,61.9,46.0,38.7,32.8,50,28,13,29.90,29.75,25,8,25,0.00
2013-10-2,88.0,73.5,63.2,47.0,39.3,28.0,53,32,12,29.86,29.72,23,10,31,0.00
2013-10-3,83.4,72.8,62.6,39.6,24.3,13.0,38,18,9,29.98,29.74,19,7,22,0.00
2013-10-4,73.2,64.1,54.5,14.1,11.0,6.7,19,13,8,30.27,29.98,21,8,32,0.00
2013-10-5,76.5,62.6,49.2,17.0,12.5,9.0,22,15,8,30.40,30.25,15,4,21,0.00
2013-10-6,83.0,65.8,43.5,14.9,10.5,6.0,26,13,6,30.31,30.11,9,2,13,0.00
2013-10-7,83.6,66.7,48.8,19.0,10.3,4.0,20,12,6,30.11,29.87,16,4,22,0.00
2013-10-8,83.0,71.0,59.0,34.7,18.3,9.1,34,14,7,29.87,29.63,22,7,23,0.00
2013-10-9,63.5,56.7,50.7,41.0,36.5,30.0,58,47,31,29.79,29.55,33,14,38,0.00
2013-10-10,73.0,59.4,46.0,37.0,33.3,28.0,64,41,20,30.01,29.80,14,5,18,0.00
2013-10-11,61.5,53.5,47.7,35.0,33.7,33.0,58,48,35,30.12,30.02,8,3,12,0.00
2013-10-12,78.3,65.1,48.3,35.6,26.8,8.8,55,28,7,30.03,29.84,23,6,28,0.00
2013-10-13,77.0,66.8,57.3,36.0,29.2,19.0,41,26,14,30.07,29.83,20,7,26,0.00
2013-10-14,74.0,61.4,49.9,30.0,26.4,20.0,45,28,17,30.21,30.06,9,2,18,0.00
2013-10-15,73.6,60.4,46.4,26.0,22.0,17.0,37,24,12,30.16,30.05,13,3,17,0.00
2013-10-16,73.5,62.4,47.6,20.0,16.4,13.0,30,18,10,30.27,30.11,9,2,12,0.00
2013-10-17,81.8,63.3,44.3,23.0,16.3,11.0,28,17,8,30.17,29.99,7,1,8,0.00
2013-10-18,80.7,63.4,54.1,22.8,16.5,11.7,26,17,9,30.12,30.01,8,2,11,0.00
2013-10-19,82.8,64.7,44.9,16.0,12.5,8.0,27,15,7,30.16,30.00,8,2,11,0.00
2013-10-20,88.2,71.6,51.8,20.0,13.7,10.0,21,12,6,30.03,29.86,7,2,10,0.00
2013-10-21,83.4,69.2,54.2,20.6,15.8,12.3,21,14,8,30.03,29.91,11,3,16,0.00
2013-10-22,82.4,67.2,47.4,22.9,17.3,13.8,27,16,10,30.10,29.95,14,2,16,0.00
2013-10-23,83.0,66.2,48.9,21.6,18.3,15.0,28,17,9,30.00,29.88,8,2,11,0.00
2013-10-24,86.5,68.4,53.6,26.0,18.8,15.0,24,16,8,30.00,29.90,10,2,11,0.00
2013-10-25,85.5,70.8,56.6,26.0,20.3,17.0,25,16,8,30.11,30.00,9,3,12,0.00
2013-10-26,84.0,67.3,49.8,22.0,18.5,15.0,27,17,8,30.18,30.02,7,2,11,0.00
2013-10-27,82.5,65.9,49.5,35.0,20.4,15.2,32,19,8,30.04,29.58,19,6,33,0.00
2013-10-28,62.6,54.1,48.0,37.0,31.4,24.0,66,43,26,29.87,29.54,22,13,36,0.00
2013-10-29,62.7,51.8,43.1,37.0,33.0,30.0,69,51,29,30.02,29.86,19,6,26,0.00
2013-10-30,66.6,52.7,44.2,31.7,26.6,20.0,57,39,18,30.16,30.02,8,2,10,0.00
2013-10-31,70.4,54.3,38.6,25.4,21.2,14.0,51,30,15,30.26,30.14,10,2,10,0.00
2013-11-1,73.0,55.3,39.3,25.0,19.8,14.0,42,26,16,30.30,30.11,8,2,11,0.00
2013-11-2,76.8,58.5,39.8,27.0,22.6,21.0,50,28,13,30.12,29.80,13,4,19,0.00
2013-11-3,74.2,59.5,42.3,32.0,23.5,19.0,42,26,15,29.86,29.74,14,3,18,0.00
2013-11-4,66.8,57.4,48.3,33.0,23.6,15.0,48,29,16,30.05,29.75,14,4,17,0.00
2013-11-5,62.4,52.4,39.2,16.0,10.0,4.0,31,19,10,30.31,30.05,13,3,16,0.00
2013-11-6,67.6,51.5,35.9,12.0,7.2,4.0,28,18,10,30.42,30.27,10,2,13,0.00
2013-11-7,74.2,56.8,39.2,17.0,12.3,7.0,28,18,11,30.28,30.06,7,1,8,0.00
2013-11-8,73.5,56.0,41.1,18.0,14.6,11.0,32,21,11,30.08,29.92,5,1,8,0.00
2013-11-9,74.0,54.8,39.6,17.0,13.2,9.0,33,21,10,30.11,29.99,5,1,9,0.00
2013-11-10,76.1,55.1,38.5,18.0,12.8,9.0,33,20,10,30.19,30.09,5,1,7,0.00
2013-11-11,76.8,58.8,42.2,15.0,12.3,9.0,28,17,9,30.20,30.10,8,2,11,0.00
2013-11-12,70.1,60.1,48.6,19.7,13.6,9.0,24,16,12,30.25,30.16,5,1,9,0.00
2013-11-13,78.3,64.1,49.1,22.0,14.5,11.8,24,15,9,30.18,30.00,8,2,9,0.00
2013-11-14,80.3,67.8,56.0,25.0,22.9,20.0,28,19,11,30.04,29.59,20,6,26,0.00
2013-11-15,71.5,63.0,52.6,37.0,27.3,19.0,55,28,16,29.60,29.51,22,8,25,0.00
2013-11-16,66.8,55.3,46.8,37.4,32.5,22.3,62,44,27,29.83,29.59,18,5,22,0.00
2013-11-17,66.0,53.5,38.3,35.3,30.1,26.0,65,43,26,30.12,29.84,11,2,12,0.00
2013-11-18,67.8,54.5,38.8,37.7,33.4,28.0,68,46,29,30.17,29.97,19,4,19,0.00
2013-11-19,63.4,55.4,44.6,36.3,35.1,33.1,68,47,35,29.98,29.86,12,2,14,0.00
2013-11-20,69.1,59.0,49.1,42.0,36.7,33.0,61,44,28,29.86,29.71,25,6,29,0.00
2013-11-21,62.7,52.8,44.1,45.0,40.5,31.0,91,64,44,29.98,29.72,19,6,27,0.42
2013-11-22,44.2,41.3,38.9,36.0,34.1,31.7,85,76,62,30.11,29.98,20,10,28,0.24
2013-11-23,49.9,46.1,42.6,39.0,35.8,31.7,81,68,57,30.17,30.07,10,2,14,0.05
2013-11-24,60.1,47.5,38.5,39.0,36.1,30.0,86,68,33,30.25,30.16,4,0,7,0.00
2013-11-25,65.8,48.1,34.4,43.0,35.5,29.8,91,66,29,30.33,30.24,5,1,6,0.00
2013-11-26,62.9,49.1,37.8,41.0,35.8,29.0,86,64,30,30.33,30.18,5,1,8,0.00
2013-11-27,63.2,52.1,41.3,40.2,36.1,31.0,82,58,32,30.18,29.97,9,1,10,0.00
2013-11-28,59.2,49.0,40.2,39.4,35.0,28.0,83,61,31,30.14,29.99,11,1,12,0.00
2013-11-29,60.3,50.3,40.3,36.2,32.7,28.6,76,53,30,30.25,30.13,8,2,9,0.00
2013-11-30,67.3,52.2,43.5,36.0,31.1,27.0,72,47,23,30.29,30.16,5,2,9,0.00
2013-12-1,69.6,49.4,40.5,32.0,28.0,24.0,68,46,18,30.35,30.23,6,2,8,0.00
2013-12-2,67.6,52.7,37.6,32.1,26.5,14.0,69,41,14,30.23,29.76,18,2,25,0.00
2013-12-3,65.8,58.5,45.2,41.1,33.2,16.0,57,41,15,29.76,29.49,35,17,41,0.00
2013-12-4,48.3,41.4,30.9,20.5,9.7,5.0,41,27,19,30.03,29.65,17,4,24,0.00
2013-12-5,43.9,34.1,24.1,13.7,9.0,4.8,61,37,21,30.17,30.01,9,2,10,0.00
2013-12-6,48.8,36.1,21.4,15.0,6.0,-15.0,69,34,8,30.24,30.03,19,4,23,0.00
2013-12-7,48.3,41.7,37.0,33.7,16.6,-2.0,67,38,17,30.05,29.82,27,15,49,0.00
2013-12-8,40.8,32.6,25.7,11.8,9.4,6.0,52,38,26,30.33,30.07,6,2,9,0.00
2013-12-9,43.5,35.1,23.5,11.3,-1.4,-9.6,51,23,11,30.57,30.34,14,3,14,0.00
2013-12-10,47.4,33.0,19.9,4.2,0.7,-4.1,47,27,13,30.56,30.32,4,1,8,0.00
2013-12-11,53.3,40.7,23.0,9.9,7.0,3.9,47,26,14,30.43,30.33,8,1,9,0.00
2013-12-12,48.9,33.6,26.3,13.7,10.7,7.1,52,40,23,30.38,30.34,7,2,8,0.00
2013-12-13,61.4,43.2,28.3,16.9,13.7,10.5,55,32,14,30.34,30.16,7,1,8,0.00
2013-12-14,60.2,45.7,36.3,20.2,17.0,14.4,48,33,17,30.49,30.38,8,2,15,0.00
2013-12-15,62.3,50.7,31.3,19.9,17.3,14.8,58,28,16,30.49,30.30,8,1,8,0.00
2013-12-16,66.9,53.0,36.3,21.0,19.2,16.8,50,28,16,30.36,30.22,4,1,4,0.00
2013-12-17,62.9,44.3,37.3,22.1,19.4,16.6,49,38,18,30.31,30.23,4,1,8,0.00
2013-12-18,62.9,51.7,40.4,29.0,21.3,16.8,48,31,18,30.11,29.62,13,3,22,0.00
2013-12-19,56.6,50.7,45.5,36.2,31.0,24.7,63,48,32,29.74,29.53,27,12,34,0.00
2013-12-20,56.9,45.7,37.8,18.6,14.4,10.2,41,29,16,29.90,29.79,14,4,24,0.00
2013-12-21,63.7,45.9,32.1,26.4,19.9,15.0,56,38,20,30.04,29.86,4,1,11,0.00
2013-12-22,62.0,47.2,33.4,26.7,24.5,20.9,68,43,22,30.33,30.08,5,1,7,0.00
2013-12-23,61.9,46.0,32.2,28.7,25.8,23.0,71,48,26,30.45,30.34,4,1,9,0.00
2013-12-24,64.9,47.2,33.5,30.0,27.2,25.7,74,49,24,30.35,30.22,4,1,8,0.00
2013-12-25,63.2,49.2,36.2,26.4,19.8,13.9,60,33,16,30.41,30.27,8,2,13,0.00
2013-12-26,64.1,48.0,36.4,15.6,11.3,8.1,42,24,11,30.35,30.23,4,2,9,0.00
2013-12-27,66.4,47.8,32.8,14.8,8.4,3.0,35,22,9,30.32,30.11,4,1,8,0.00
2013-12-28,65.7,48.9,35.5,13.4,8.5,4.0,37,20,9,30.11,29.97,7,1,9,0.00
2013-12-29,62.4,53.3,39.3,11.2,6.7,2.8,29,16,9,30.23,30.08,15,2,15,0.00
2013-12-30,61.7,45.0,30.7,9.3,6.5,3.6,35,21,11,30.34,30.22,4,1,8,0.00
2013-12-31,61.4,45.0,31.6,12.2,8.1,5.4,36,23,11,30.27,30.13,3,1,8,0.00
2014-1-1,66.4,49.0,34.5,15.8,10.5,6.5,35,23,13,30.28,30.17,6,1,6,0.00
2014-1-2,53.2,40.9,35.9,19.5,16.3,14.5,44,37,26,30.24,30.20,4,1,7,0.00